Main page
METAR-TAF:

METAR-TAF

Airports :

Peshawar, Pakistan

Bacha Khan International Airport

latitude: 34-01N, longitude: 071-35E, elevation: 359 m

Current weather observation

The report was made 2 hours and 3 minutes ago, at 12:00 UTC
Wind 6 kt from the Northeast
Temperature 29°C
Humidity 35%
Pressure 1006 hPa
Visibility: 4000 m
Clear sky
haze

METAR: OPPS 211200Z 05006KT 4000 HZ SKC 29/12 Q1006

Time: 19:03 (14:03 UTC)

Forecast

The report was made 4 hours and 43 minutes ago, at 09:20 UTC
Forecast valid from 21 at 12 UTC to 22 at 18 UTC
Wind 10 kt from the Northeast
Visibility: 3600 m
Few clouds at a height of 4000 ft
Scattered clouds at a height of 10000 ft
haze
Temporary
from 21 at 15 UTC to 21 at 20 UTC
Scattered clouds at a height of 4000 ft
Scattered clouds at a height of 10000 ft
thunderstorm in vicinity
Temporary
from 22 at 01 UTC to 22 at 05 UTC
Visibility: 2500 m

TAF: OPPS 210920Z 2112/2218 05010KT 3600 HZ FEW040 SCT100 TEMPO 2115/2120 VCTS SCT040 SCT100 TEMPO 2201/2205 2500

Weather observations and forecasts of more than 4000 airports (METAR and TAF reports).

The available stations are represented by yellow and red dots on the map.

Hover mouse over dot to see the name of the station.

Then click to see weather observations and forecasts.

To change the map : click on the green buttons with a black cross to zoom in, on the green button with a dash to zoom out, or on the green arrows for adjacent maps.


METAR-TAF: